In Rescue
 
Open Full Screen Window  High Contrast Mode
Wind Gusting 00 knots
09
March 01, 2024 3:15 PM CST
Weather Information
Wind Direction
  170 °
Wind Speed
  09 kt (10 mph)
Wind Gust
  00 kt (0 mph)
Altimeter
29.64 in
Visibility
10 SM
Temperature
12° C
54° F
Dewpoint
-00° C
32° F
Humidity
44%
Sky Condition
Clear
VFR

METAR KDTL 012115Z AUTO 17009KT 10SM CLR 12/M00 A2964 RMK AO2

FAA Disclaimer: The data displayed is for advisory purposes only and is not to be used for flight planning or operations.